createdAt,value
2022-08-08T00:01:52.771Z,27.6
2022-08-08T00:09:24.148Z,27.6
2022-08-08T00:17:48.401Z,27.6
2022-08-08T00:23:47.345Z,27.6
2022-08-08T00:32:15.730Z,27.6
2022-08-08T00:43:12.041Z,27.6
2022-08-08T00:51:09.995Z,27.6
2022-08-08T00:58:14.714Z,27.6
2022-08-08T01:07:05.818Z,27.6
2022-08-08T01:14:16.410Z,27.6
2022-08-08T01:23:15.867Z,27.6
2022-08-08T01:31:10.337Z,27.6
2022-08-08T01:38:48.387Z,27.6
2022-08-08T01:45:09.833Z,27.6
2022-08-08T17:14:51.074Z,31.9
2022-08-08T17:22:17.191Z,31.8
2022-08-08T17:30:16.792Z,31.8
2022-08-08T17:41:11.448Z,31.8
2022-08-08T17:47:45.302Z,31.9
2022-08-08T17:54:22.108Z,31.8
2022-08-08T18:01:30.085Z,31.8
2022-08-08T18:09:54.196Z,31.8
2022-08-08T18:15:47.868Z,31.7
2022-08-08T18:25:37.170Z,31.6
2022-08-08T18:31:56.365Z,31.6
2022-08-08T18:39:45.497Z,31.6
2022-08-08T18:48:07.415Z,31.4
2022-08-08T18:56:02.994Z,31
2022-08-08T19:03:12.117Z,30.8
2022-08-08T19:10:41.283Z,30.8
2022-08-08T19:17:53.114Z,30.8
2022-08-08T19:26:27.118Z,30.9
2022-08-08T19:34:30.662Z,31.3
2022-08-08T19:41:37.401Z,31.6
2022-08-08T19:49:17.529Z,31.6
2022-08-08T19:56:08.185Z,31.6
2022-08-08T20:03:14.356Z,31.5
2022-08-08T20:12:17.975Z,31.4
2022-08-08T20:21:14.444Z,31.3
2022-08-08T20:27:50.598Z,31.1
2022-08-08T20:36:38.901Z,31.1
2022-08-08T20:43:43.309Z,31
2022-08-08T20:51:01.925Z,31
2022-08-08T20:58:30.685Z,30.9
2022-08-08T21:05:08.052Z,30.9
2022-08-08T21:13:58.408Z,30.9
2022-08-08T21:20:55.168Z,30.9
2022-08-08T21:28:53.133Z,30.8
2022-08-08T21:37:11.239Z,30.8
2022-08-08T21:44:58.342Z,30.8
2022-08-08T21:58:54.723Z,30.6
2022-08-08T22:05:58.449Z,30.6
2022-08-08T22:13:16.871Z,30.6
2022-08-08T22:20:10.420Z,30.6
2022-08-08T22:30:14.706Z,30.5
2022-08-08T22:39:06.497Z,30.5
2022-08-08T22:45:52.510Z,30.4
2022-08-08T22:52:19.573Z,30.4
2022-08-08T23:02:35.972Z,30.4
2022-08-08T23:10:19.615Z,30.4
2022-08-08T23:19:42.085Z,30.4
2022-08-08T23:26:04.581Z,30.4
2022-08-08T23:32:15.814Z,30.4
2022-08-08T23:40:48.673Z,30.4
2022-08-08T23:50:47.328Z,30.3
2022-08-08T23:59:55.421Z,30.3
